Time;durP1;ratioP1;P1;durP2;ratioP2;P2;SDS_P1;SDS_P2;PMS_P1;PMS_P2;Temp;Humidity;BMP_temperature;BMP_pressure;BME280_temperature;BME280_humidity;BME280_pressure;Samples;Min_cycle;Max_cycle;Signal;HPM_P1;HPM_P2
2024/02/18 00:00:43;;;;;;;;;;;17.60;67.70;;;;;;5027166;28;1518;-69
2024/02/18 00:03:09;;;;;;;;;;;17.60;67.70;;;;;;5018254;28;1553;-70
2024/02/18 00:05:35;;;;;;;;;;;17.60;67.70;;;;;;5018276;28;1907;-69
2024/02/18 00:08:01;;;;;;;;;;;17.60;67.70;;;;;;5019330;28;1502;-70
2024/02/18 00:10:27;;;;;;;;;;;17.60;67.70;;;;;;5014034;28;1383;-70
2024/02/18 00:12:52;;;;;;;;;;;17.60;67.80;;;;;;5017535;28;1715;-69
2024/02/18 00:15:18;;;;;;;;;;;17.60;67.70;;;;;;5018406;28;1340;-70
2024/02/18 00:17:43;;;;;;;;;;;17.60;67.70;;;;;;5018337;28;1476;-70
2024/02/18 00:20:11;;;;;;;;;;;17.60;67.70;;;;;;5018810;28;1317;-68
2024/02/18 00:22:37;;;;;;;;;;;17.60;67.70;;;;;;5016673;28;1309;-68
2024/02/18 00:25:03;;;;;;;;;;;17.60;67.70;;;;;;5022991;28;1965;-70
2024/02/18 00:27:28;;;;;;;;;;;17.60;67.70;;;;;;5017919;28;1205;-70
2024/02/18 00:29:54;;;;;;;;;;;17.60;67.70;;;;;;5019393;28;1411;-70
2024/02/18 00:32:20;;;;;;;;;;;17.60;67.80;;;;;;5019586;28;1337;-70
2024/02/18 00:34:45;;;;;;;;;;;17.60;67.80;;;;;;5020351;28;1616;-71
2024/02/18 00:37:11;;;;;;;;;;;17.60;67.80;;;;;;5016764;28;1540;-70
2024/02/18 00:39:36;;;;;;;;;;;17.60;67.70;;;;;;5018575;28;1433;-69
2024/02/18 00:42:01;;;;;;;;;;;17.60;67.80;;;;;;5017706;28;1381;-70
2024/02/18 00:44:27;;;;;;;;;;;17.60;68.50;;;;;;5017925;28;1906;-70
2024/02/18 00:46:52;;;;;;;;;;;17.60;67.80;;;;;;5017898;28;1735;-70
2024/02/18 00:49:18;;;;;;;;;;;17.60;67.80;;;;;;5004751;28;1494;-70
2024/02/18 00:51:44;;;;;;;;;;;17.60;67.80;;;;;;5020275;28;1672;-70
2024/02/18 00:54:09;;;;;;;;;;;17.60;67.80;;;;;;5024324;28;1579;-70
2024/02/18 00:56:34;;;;;;;;;;;17.60;67.80;;;;;;5029293;28;1639;-69
2024/02/18 00:59:00;;;;;;;;;;;17.60;67.80;;;;;;5024608;28;1339;-70
2024/02/18 01:01:25;;;;;;;;;;;17.60;67.80;;;;;;5022659;28;1351;-70
2024/02/18 01:03:51;;;;;;;;;;;17.60;67.80;;;;;;5023906;28;1425;-70
2024/02/18 01:06:16;;;;;;;;;;;17.60;67.80;;;;;;5022352;28;1930;-70
2024/02/18 01:08:42;;;;;;;;;;;17.60;67.80;;;;;;5023560;28;1476;-70
2024/02/18 01:11:07;;;;;;;;;;;17.60;67.80;;;;;;5017387;28;1428;-70
2024/02/18 01:13:33;;;;;;;;;;;17.60;67.90;;;;;;5021089;28;1399;-68
2024/02/18 01:15:58;;;;;;;;;;;17.60;67.80;;;;;;5011175;28;1437;-70
2024/02/18 01:18:24;;;;;;;;;;;17.60;67.80;;;;;;5022297;28;1306;-70
2024/02/18 01:20:49;;;;;;;;;;;17.50;67.80;;;;;;5024478;28;1307;-70
2024/02/18 01:23:15;;;;;;;;;;;17.50;67.80;;;;;;5029345;28;1088;-69
2024/02/18 01:25:40;;;;;;;;;;;17.60;67.90;;;;;;5021390;28;1898;-70
2024/02/18 01:28:06;;;;;;;;;;;17.50;67.80;;;;;;5021359;28;1495;-70
2024/02/18 01:30:31;;;;;;;;;;;17.50;67.80;;;;;;5020566;28;1713;-69
2024/02/18 01:32:57;;;;;;;;;;;17.60;67.90;;;;;;5020627;28;1569;-70
2024/02/18 01:35:22;;;;;;;;;;;17.50;67.80;;;;;;5022630;28;1345;-69
2024/02/18 01:37:48;;;;;;;;;;;17.60;67.90;;;;;;5019943;28;1389;-70
2024/02/18 01:40:16;;;;;;;;;;;17.50;67.80;;;;;;5021806;28;1623;-70
2024/02/18 01:42:42;;;;;;;;;;;17.60;67.90;;;;;;5023865;28;1689;-69
2024/02/18 01:45:09;;;;;;;;;;;17.50;67.80;;;;;;5028279;28;1944;-70
2024/02/18 01:47:35;;;;;;;;;;;17.50;67.80;;;;;;5023598;28;1584;-70
2024/02/18 01:50:01;;;;;;;;;;;17.50;67.80;;;;;;5021207;28;1291;-70
2024/02/18 01:52:26;;;;;;;;;;;17.50;67.90;;;;;;5022945;28;1753;-67
2024/02/18 01:54:52;;;;;;;;;;;17.50;67.80;;;;;;5025563;28;1320;-70
2024/02/18 01:57:17;;;;;;;;;;;17.50;67.90;;;;;;5020669;28;1359;-70
2024/02/18 01:59:43;;;;;;;;;;;17.50;67.80;;;;;;5006419;28;1781;-70
2024/02/18 02:02:08;;;;;;;;;;;17.50;67.90;;;;;;5020063;28;1621;-69
2024/02/18 02:04:33;;;;;;;;;;;17.50;67.90;;;;;;5020539;28;1902;-68
2024/02/18 02:07:02;;;;;;;;;;;17.50;67.90;;;;;;5022708;28;1281;-68
2024/02/18 02:09:28;;;;;;;;;;;17.50;67.90;;;;;;5022946;28;1507;-68
2024/02/18 02:11:54;;;;;;;;;;;17.50;67.90;;;;;;5019149;28;1454;-70
2024/02/18 02:14:19;;;;;;;;;;;17.50;67.90;;;;;;5019733;28;1304;-69
2024/02/18 02:16:44;;;;;;;;;;;17.50;67.90;;;;;;5022690;28;1548;-70
2024/02/18 02:19:10;;;;;;;;;;;17.50;67.90;;;;;;5018346;28;1576;-70
2024/02/18 02:21:36;;;;;;;;;;;17.50;67.90;;;;;;5022598;28;1492;-71
2024/02/18 02:24:01;;;;;;;;;;;17.50;67.90;;;;;;5020520;28;1967;-69
2024/02/18 02:26:27;;;;;;;;;;;17.50;67.90;;;;;;5019918;28;1615;-70
2024/02/18 02:29:08;;;;;;;;;;;17.50;68.00;;;;;;5021326;28;1311;-70
2024/02/18 02:31:33;;;;;;;;;;;17.50;67.90;;;;;;5018962;28;1221;-69
2024/02/18 02:33:59;;;;;;;;;;;17.50;68.00;;;;;;5020983;28;1860;-70
2024/02/18 02:36:25;;;;;;;;;;;17.50;68.00;;;;;;5016021;28;1250;-71
2024/02/18 02:38:50;;;;;;;;;;;17.50;67.90;;;;;;5017763;28;1609;-71
2024/02/18 02:41:16;;;;;;;;;;;17.50;67.90;;;;;;5017988;28;1541;-70
2024/02/18 02:43:42;;;;;;;;;;;17.50;68.00;;;;;;5018841;28;1510;-71
2024/02/18 02:46:07;;;;;;;;;;;17.50;67.90;;;;;;5021182;28;1934;-69
2024/02/18 02:48:32;;;;;;;;;;;17.50;68.00;;;;;;5020436;28;1562;-69
2024/02/18 02:50:59;;;;;;;;;;;17.50;68.00;;;;;;5019632;28;1718;-69
2024/02/18 02:53:24;;;;;;;;;;;17.50;68.00;;;;;;5028072;28;1268;-69
2024/02/18 02:55:50;;;;;;;;;;;17.50;68.00;;;;;;5006070;28;1306;-69
2024/02/18 02:58:15;;;;;;;;;;;17.50;67.90;;;;;;5021013;28;1205;-69
2024/02/18 03:00:41;;;;;;;;;;;17.50;68.00;;;;;;5020462;28;1343;-71
2024/02/18 03:03:06;;;;;;;;;;;17.50;68.00;;;;;;5018631;28;1503;-71
2024/02/18 03:05:32;;;;;;;;;;;17.50;68.00;;;;;;5019285;28;1975;-70
2024/02/18 03:07:57;;;;;;;;;;;17.50;68.00;;;;;;5016997;28;1508;-70
2024/02/18 03:10:23;;;;;;;;;;;17.50;68.00;;;;;;5018503;28;1629;-71
2024/02/18 03:12:48;;;;;;;;;;;17.50;68.00;;;;;;5018790;28;1604;-70
2024/02/18 03:15:14;;;;;;;;;;;17.50;68.00;;;;;;5018979;28;1263;-71
2024/02/18 03:17:39;;;;;;;;;;;17.50;68.00;;;;;;5017769;28;1365;-69
2024/02/18 03:20:11;;;;;;;;;;;17.50;68.00;;;;;;5050322;28;1533;-69
2024/02/18 03:22:36;;;;;;;;;;;17.50;68.70;;;;;;5019926;28;1349;-70
2024/02/18 03:25:02;;;;;;;;;;;17.50;68.00;;;;;;5018325;28;1891;-70
2024/02/18 03:27:28;;;;;;;;;;;17.50;68.00;;;;;;5020854;28;1249;-70
2024/02/18 03:29:54;;;;;;;;;;;17.50;68.00;;;;;;5019014;28;1400;-70
2024/02/18 03:32:19;;;;;;;;;;;17.50;68.00;;;;;;5020037;28;1446;-70
2024/02/18 03:34:45;;;;;;;;;;;17.50;68.00;;;;;;5020426;28;1517;-70
2024/02/18 03:37:10;;;;;;;;;;;17.50;68.00;;;;;;5017164;28;1364;-69
2024/02/18 03:39:37;;;;;;;;;;;17.50;68.00;;;;;;5016875;28;1427;-70
2024/02/18 03:42:02;;;;;;;;;;;17.50;68.00;;;;;;5018076;28;1403;-70
2024/02/18 03:44:28;;;;;;;;;;;17.50;68.00;;;;;;5017325;28;1898;-70
2024/02/18 03:46:53;;;;;;;;;;;17.50;68.00;;;;;;5018587;28;1462;-69
2024/02/18 03:49:18;;;;;;;;;;;17.50;68.00;;;;;;5020943;28;1331;-70
2024/02/18 03:51:44;;;;;;;;;;;17.50;68.00;;;;;;5028470;28;1318;-69
2024/02/18 03:54:10;;;;;;;;;;;17.50;68.00;;;;;;5017027;28;887;-69
2024/02/18 03:56:36;;;;;;;;;;;17.50;68.00;;;;;;5015755;28;933;-69
2024/02/18 03:59:01;;;;;;;;;;;17.50;68.00;;;;;;5021579;28;1363;-70
2024/02/18 04:01:27;;;;;;;;;;;17.50;68.00;;;;;;5019356;28;934;-70
2024/02/18 04:03:52;;;;;;;;;;;17.50;68.10;;;;;;5017108;28;1390;-70
2024/02/18 04:06:18;;;;;;;;;;;17.50;68.00;;;;;;5019019;28;1898;-70
2024/02/18 04:08:44;;;;;;;;;;;17.50;68.10;;;;;;5017254;28;1575;-70
2024/02/18 04:11:09;;;;;;;;;;;17.50;68.00;;;;;;5016170;28;1526;-69
2024/02/18 04:13:36;;;;;;;;;;;17.50;68.10;;;;;;5018546;28;1470;-70
2024/02/18 04:16:03;;;;;;;;;;;17.50;68.00;;;;;;5009614;28;1355;-70
2024/02/18 04:18:28;;;;;;;;;;;17.50;68.00;;;;;;5016613;28;1493;-70
2024/02/18 04:20:54;;;;;;;;;;;17.50;68.00;;;;;;5018871;28;1533;-69
2024/02/18 04:23:19;;;;;;;;;;;17.50;68.10;;;;;;5022369;28;1251;-69
2024/02/18 04:25:45;;;;;;;;;;;17.50;68.10;;;;;;5023196;28;2025;-69
2024/02/18 04:28:10;;;;;;;;;;;17.50;68.00;;;;;;5023479;28;1572;-69
2024/02/18 04:30:36;;;;;;;;;;;17.50;68.10;;;;;;5018557;28;1668;-70
2024/02/18 04:33:02;;;;;;;;;;;17.50;68.10;;;;;;5018653;28;1416;-70
2024/02/18 04:35:28;;;;;;;;;;;17.50;68.10;;;;;;5021202;28;1144;-70
2024/02/18 04:37:53;;;;;;;;;;;17.50;68.10;;;;;;5021470;28;1604;-70
2024/02/18 04:40:19;;;;;;;;;;;17.50;68.10;;;;;;5021436;28;1380;-70
2024/02/18 04:42:44;;;;;;;;;;;17.50;68.10;;;;;;5022686;28;1603;-70
2024/02/18 04:45:10;;;;;;;;;;;17.50;68.10;;;;;;5023207;28;1954;-69
2024/02/18 04:47:35;;;;;;;;;;;17.50;68.10;;;;;;5021963;28;1423;-70
2024/02/18 04:50:03;;;;;;;;;;;17.50;68.10;;;;;;5022485;28;1400;-68
2024/02/18 04:52:30;;;;;;;;;;;17.50;68.10;;;;;;5019092;28;1557;-70
2024/02/18 04:54:55;;;;;;;;;;;17.50;68.10;;;;;;5006549;28;1772;-70
2024/02/18 04:57:21;;;;;;;;;;;17.50;68.00;;;;;;5021352;28;1455;-70
2024/02/18 04:59:46;;;;;;;;;;;17.50;68.00;;;;;;5025034;28;1527;-70
2024/02/18 05:02:12;;;;;;;;;;;17.50;68.00;;;;;;5023029;28;1582;-70
2024/02/18 05:04:37;;;;;;;;;;;17.50;68.70;;;;;;5021837;28;1910;-68
2024/02/18 05:07:03;;;;;;;;;;;17.50;68.00;;;;;;5024357;28;1546;-68
2024/02/18 05:09:28;;;;;;;;;;;17.50;67.90;;;;;;5017526;28;1381;-70
2024/02/18 05:11:54;;;;;;;;;;;17.50;67.90;;;;;;5029595;28;1482;-69
2024/02/18 05:14:19;;;;;;;;;;;17.50;67.90;;;;;;5020468;28;1235;-69
2024/02/18 05:16:45;;;;;;;;;;;17.50;67.80;;;;;;5020507;28;1514;-70
2024/02/18 05:19:11;;;;;;;;;;;17.50;67.80;;;;;;5018312;28;1421;-71
2024/02/18 05:21:39;;;;;;;;;;;17.60;67.80;;;;;;5024045;28;1453;-70
2024/02/18 05:24:05;;;;;;;;;;;17.60;67.70;;;;;;5021333;28;1439;-70
2024/02/18 05:26:30;;;;;;;;;;;17.60;67.70;;;;;;5019736;28;1970;-70
2024/02/18 05:28:56;;;;;;;;;;;17.60;67.60;;;;;;5022653;28;1650;-70
2024/02/18 05:31:22;;;;;;;;;;;17.60;67.50;;;;;;5021115;28;1591;-70
2024/02/18 05:33:48;;;;;;;;;;;17.60;67.40;;;;;;5020093;28;1409;-69
2024/02/18 05:36:14;;;;;;;;;;;17.70;67.30;;;;;;5021428;28;1360;-69
2024/02/18 05:38:43;;;;;;;;;;;17.70;67.20;;;;;;5023459;28;1522;-70
2024/02/18 05:41:08;;;;;;;;;;;17.70;67.20;;;;;;5006543;28;1316;-70
2024/02/18 05:43:34;;;;;;;;;;;17.70;67.20;;;;;;5021191;28;1432;-70
2024/02/18 05:45:59;;;;;;;;;;;17.70;67.10;;;;;;5021387;28;1910;-70
2024/02/18 05:48:25;;;;;;;;;;;17.70;67.00;;;;;;5019259;28;1240;-70
2024/02/18 05:50:50;;;;;;;;;;;17.70;67.00;;;;;;5022911;28;1370;-68
2024/02/18 05:53:16;;;;;;;;;;;17.80;67.00;;;;;;5019194;28;2063;-68
2024/02/18 05:55:41;;;;;;;;;;;17.80;66.90;;;;;;5016707;28;1443;-68
2024/02/18 05:58:07;;;;;;;;;;;17.80;66.90;;;;;;5019486;28;1432;-68
2024/02/18 06:00:33;;;;;;;;;;;17.80;66.90;;;;;;5027686;28;1508;-68
2024/02/18 06:02:58;;;;;;;;;;;17.80;66.80;;;;;;5020188;28;1674;-69
2024/02/18 06:05:24;;;;;;;;;;;17.80;66.80;;;;;;5012311;28;1890;-68
2024/02/18 06:07:49;;;;;;;;;;;17.80;66.80;;;;;;5022079;28;1679;-71
2024/02/18 06:10:15;;;;;;;;;;;17.80;66.70;;;;;;5017696;28;2109;-68
2024/02/18 06:12:43;;;;;;;;;;;17.80;66.70;;;;;;5021127;28;1336;-67
2024/02/18 06:15:09;;;;;;;;;;;17.80;66.70;;;;;;5035644;28;1551;-67
2024/02/18 06:17:35;;;;;;;;;;;17.80;66.70;;;;;;5021034;28;1237;-67
2024/02/18 06:20:00;;;;;;;;;;;17.80;66.60;;;;;;5020811;28;1595;-68
2024/02/18 06:22:26;;;;;;;;;;;17.80;66.60;;;;;;5016816;28;1287;-68
2024/02/18 06:24:51;;;;;;;;;;;17.90;66.60;;;;;;5020958;28;1914;-67
2024/02/18 06:27:17;;;;;;;;;;;17.80;66.50;;;;;;5018864;28;1453;-67
2024/02/18 06:29:42;;;;;;;;;;;17.80;66.50;;;;;;5019266;28;1560;-67
2024/02/18 06:32:08;;;;;;;;;;;17.90;66.60;;;;;;5019527;28;1265;-67
2024/02/18 06:34:33;;;;;;;;;;;17.90;66.50;;;;;;5021861;28;1547;-67
2024/02/18 06:36:59;;;;;;;;;;;17.90;66.50;;;;;;5023111;28;1332;-68
2024/02/18 06:39:24;;;;;;;;;;;17.90;66.50;;;;;;5018526;28;1280;-68
2024/02/18 06:41:50;;;;;;;;;;;17.90;66.50;;;;;;5020900;28;1605;-67
2024/02/18 06:44:16;;;;;;;;;;;17.90;66.50;;;;;;5024009;28;1902;-68
2024/02/18 06:46:42;;;;;;;;;;;17.90;66.50;;;;;;5021230;28;1342;-68
2024/02/18 06:49:07;;;;;;;;;;;17.90;66.40;;;;;;5018482;28;1500;-69
2024/02/18 06:51:32;;;;;;;;;;;17.90;66.40;;;;;;5021150;28;1312;-69
2024/02/18 06:53:59;;;;;;;;;;;17.90;66.40;;;;;;5016426;28;1510;-69
2024/02/18 06:56:24;;;;;;;;;;;17.90;66.40;;;;;;5017394;28;1458;-70
2024/02/18 06:58:50;;;;;;;;;;;17.90;66.40;;;;;;5019995;28;1477;-69
2024/02/18 07:01:19;;;;;;;;;;;17.90;66.40;;;;;;5023102;28;1711;-69
2024/02/18 07:03:45;;;;;;;;;;;17.90;66.40;;;;;;5019462;28;1536;-69
2024/02/18 07:06:10;;;;;;;;;;;17.90;66.40;;;;;;5021550;28;1969;-69
2024/02/18 07:08:36;;;;;;;;;;;17.90;66.40;;;;;;5019904;28;1440;-69
2024/02/18 07:11:02;;;;;;;;;;;17.90;66.40;;;;;;5022698;28;1345;-69
2024/02/18 07:13:27;;;;;;;;;;;17.90;66.40;;;;;;5020661;28;1480;-68
2024/02/18 07:15:53;;;;;;;;;;;17.90;66.40;;;;;;5019600;28;1447;-69
2024/02/18 07:18:18;;;;;;;;;;;17.90;66.40;;;;;;5018882;28;1185;-69
2024/02/18 07:20:44;;;;;;;;;;;17.90;66.40;;;;;;5022603;28;1264;-69
2024/02/18 07:23:11;;;;;;;;;;;17.90;66.40;;;;;;5020211;28;1423;-67
2024/02/18 07:25:37;;;;;;;;;;;17.90;66.40;;;;;;5020178;28;1906;-68
2024/02/18 07:28:02;;;;;;;;;;;17.90;66.40;;;;;;5024273;28;1736;-69
2024/02/18 07:30:28;;;;;;;;;;;17.90;66.40;;;;;;5021059;28;1456;-70
2024/02/18 07:32:53;;;;;;;;;;;17.90;64.30;;;;;;5020639;28;1502;-69
2024/02/18 07:35:19;;;;;;;;;;;17.80;62.50;;;;;;5020053;28;1585;-69
2024/02/18 07:37:44;;;;;;;;;;;17.80;63.30;;;;;;5018110;28;1332;-69
2024/02/18 07:40:10;;;;;;;;;;;17.80;62.40;;;;;;5010334;28;1375;-69
2024/02/18 07:42:37;;;;;;;;;;;17.80;62.60;;;;;;5020648;28;1489;-68
2024/02/18 07:45:03;;;;;;;;;;;17.80;62.70;;;;;;5020100;28;1894;-69
2024/02/18 07:47:29;;;;;;;;;;;17.80;62.90;;;;;;5021173;28;1437;-66
2024/02/18 07:49:54;;;;;;;;;;;17.80;63.10;;;;;;5019851;28;1391;-67
2024/02/18 07:52:20;;;;;;;;;;;17.80;63.40;;;;;;5018567;28;1937;-66
2024/02/18 07:54:48;;;;;;;;;;;17.80;63.70;;;;;;5018145;28;1303;-70
2024/02/18 07:57:14;;;;;;;;;;;17.80;63.90;;;;;;5018604;28;1300;-69
2024/02/18 07:59:39;;;;;;;;;;;17.80;64.10;;;;;;5015659;28;1988;-70
2024/02/18 08:02:05;;;;;;;;;;;17.80;64.30;;;;;;5018895;28;1466;-70
2024/02/18 08:04:33;;;;;;;;;;;17.80;64.40;;;;;;5020609;28;2299;-70
2024/02/18 08:06:59;;;;;;;;;;;17.80;64.60;;;;;;5016712;28;1476;-70
2024/02/18 08:09:24;;;;;;;;;;;17.80;64.70;;;;;;5016842;28;1382;-68
2024/02/18 08:11:50;;;;;;;;;;;17.80;64.80;;;;;;5019949;28;1192;-69
2024/02/18 08:14:15;;;;;;;;;;;17.80;64.90;;;;;;5016328;28;1477;-71
2024/02/18 08:16:43;;;;;;;;;;;17.80;65.00;;;;;;5018171;28;1467;-71
2024/02/18 08:19:09;;;;;;;;;;;17.80;65.00;;;;;;5015082;28;1437;-71
2024/02/18 08:21:34;;;;;;;;;;;17.80;65.10;;;;;;5026110;28;1410;-70
2024/02/18 08:24:00;;;;;;;;;;;17.80;65.20;;;;;;5018396;28;1560;-71
2024/02/18 08:26:25;;;;;;;;;;;17.80;65.20;;;;;;5016018;28;1961;-70
2024/02/18 08:28:51;;;;;;;;;;;17.80;65.30;;;;;;5018679;28;1536;-71
2024/02/18 08:31:17;;;;;;;;;;;17.80;65.30;;;;;;5027375;28;1509;-71
2024/02/18 08:33:43;;;;;;;;;;;17.80;65.40;;;;;;5019107;28;1239;-68
2024/02/18 08:36:09;;;;;;;;;;;17.80;65.40;;;;;;5026082;28;1488;-70
2024/02/18 08:38:34;;;;;;;;;;;17.80;65.40;;;;;;5017608;28;1632;-71
2024/02/18 08:41:01;;;;;;;;;;;17.80;66.20;;;;;;5016370;28;1249;-71
2024/02/18 08:43:26;;;;;;;;;;;17.80;65.50;;;;;;5018283;28;1426;-71
2024/02/18 08:45:52;;;;;;;;;;;17.80;65.50;;;;;;5027389;28;1957;-70
2024/02/18 08:48:17;;;;;;;;;;;17.80;65.50;;;;;;5019618;28;1604;-69
2024/02/18 08:50:43;;;;;;;;;;;17.80;65.50;;;;;;5022429;28;1507;-71
2024/02/18 08:53:08;;;;;;;;;;;17.80;65.50;;;;;;5018616;28;1931;-70
2024/02/18 08:55:35;;;;;;;;;;;17.80;65.50;;;;;;5020508;28;1482;-70
2024/02/18 08:58:00;;;;;;;;;;;17.80;65.50;;;;;;5022204;28;1493;-71
2024/02/18 09:00:26;;;;;;;;;;;17.80;65.50;;;;;;5022287;28;1395;-70
2024/02/18 09:02:55;;;;;;;;;;;17.80;65.50;;;;;;5019204;28;1501;-70
2024/02/18 09:05:22;;;;;;;;;;;17.80;65.50;;;;;;5018923;28;1967;-70
2024/02/18 09:07:48;;;;;;;;;;;17.80;65.50;;;;;;5006448;28;1379;-70
2024/02/18 09:10:14;;;;;;;;;;;17.80;65.50;;;;;;5022588;28;1527;-70
2024/02/18 09:12:39;;;;;;;;;;;17.80;65.50;;;;;;5024653;28;1787;-71
2024/02/18 09:15:05;;;;;;;;;;;17.90;65.50;;;;;;5024291;28;1345;-70
2024/02/18 09:17:30;;;;;;;;;;;17.90;65.50;;;;;;5022358;28;1433;-69
2024/02/18 09:19:56;;;;;;;;;;;17.80;65.40;;;;;;5023119;28;1376;-70
2024/02/18 09:22:21;;;;;;;;;;;17.90;65.50;;;;;;5023366;28;1376;-71
2024/02/18 09:24:47;;;;;;;;;;;17.90;65.50;;;;;;5025071;28;2545;-69
2024/02/18 09:27:12;;;;;;;;;;;17.90;65.50;;;;;;5021957;28;1607;-69
2024/02/18 09:29:38;;;;;;;;;;;17.90;65.40;;;;;;5025008;28;1477;-70
2024/02/18 09:32:03;;;;;;;;;;;17.90;65.50;;;;;;5021034;28;1677;-70
2024/02/18 09:34:30;;;;;;;;;;;17.90;65.40;;;;;;5019463;28;1482;-70
2024/02/18 09:36:56;;;;;;;;;;;17.90;65.40;;;;;;5022529;28;1449;-71
2024/02/18 09:39:21;;;;;;;;;;;17.90;65.40;;;;;;5021890;28;1469;-71
2024/02/18 09:41:47;;;;;;;;;;;17.90;65.40;;;;;;5022779;28;1385;-70
2024/02/18 09:44:13;;;;;;;;;;;17.90;65.40;;;;;;5019200;28;1324;-70
2024/02/18 09:46:38;;;;;;;;;;;17.90;65.30;;;;;;5028511;28;1898;-69
2024/02/18 09:49:05;;;;;;;;;;;17.90;65.30;;;;;;5029008;28;1637;-70
2024/02/18 09:51:37;;;;;;;;;;;17.90;65.40;;;;;;5029799;28;1349;-70
2024/02/18 09:54:03;;;;;;;;;;;18.00;65.40;;;;;;5053275;28;1669;-69
2024/02/18 09:56:29;;;;;;;;;;;17.90;65.30;;;;;;5018134;28;1352;-70
2024/02/18 09:58:54;;;;;;;;;;;17.90;65.30;;;;;;5020948;28;1624;-68
2024/02/18 10:01:21;;;;;;;;;;;18.00;65.40;;;;;;5019084;28;1377;-68
2024/02/18 10:03:49;;;;;;;;;;;17.90;65.30;;;;;;5018261;28;1353;-68
2024/02/18 10:06:15;;;;;;;;;;;17.90;65.30;;;;;;5021829;28;1962;-68
2024/02/18 10:08:41;;;;;;;;;;;18.00;65.40;;;;;;5020588;28;1288;-68
2024/02/18 10:11:07;;;;;;;;;;;18.00;65.40;;;;;;5019781;28;1249;-67
2024/02/18 10:13:32;;;;;;;;;;;18.00;65.40;;;;;;5021542;28;1332;-68
2024/02/18 10:15:58;;;;;;;;;;;17.90;65.30;;;;;;5021717;28;1316;-68
2024/02/18 10:18:24;;;;;;;;;;;17.90;65.30;;;;;;5021655;28;1640;-68
2024/02/18 10:20:49;;;;;;;;;;;18.00;65.40;;;;;;5018925;28;1421;-68
2024/02/18 10:23:15;;;;;;;;;;;17.90;65.40;;;;;;5005485;28;1605;-67
2024/02/18 10:25:40;;;;;;;;;;;17.90;65.40;;;;;;5020098;28;1963;-68
2024/02/18 10:28:06;;;;;;;;;;;17.90;65.40;;;;;;5021697;28;1526;-68
2024/02/18 10:30:31;;;;;;;;;;;17.90;65.40;;;;;;5020705;28;1466;-68
2024/02/18 10:32:57;;;;;;;;;;;17.90;65.60;;;;;;5016460;28;2001;-69
2024/02/18 10:35:22;;;;;;;;;;;17.90;65.50;;;;;;5020293;28;1658;-69
2024/02/18 10:37:49;;;;;;;;;;;17.90;65.50;;;;;;5018884;28;1592;-68
2024/02/18 10:40:23;;;;;;;;;;;17.90;66.30;;;;;;5028128;28;1341;-68
2024/02/18 10:42:51;;;;;;;;;;;17.90;65.60;;;;;;5020586;28;1405;-70
2024/02/18 10:45:16;;;;;;;;;;;17.90;65.60;;;;;;5019591;28;1902;-70
2024/02/18 10:47:43;;;;;;;;;;;17.90;65.60;;;;;;5021226;28;1989;-71
2024/02/18 10:50:08;;;;;;;;;;;17.90;65.70;;;;;;5014437;28;1663;-69
2024/02/18 10:52:46;;;;;;;;;;;17.90;65.70;;;;;;5019611;28;1271;-69
2024/02/18 10:55:12;;;;;;;;;;;17.90;65.70;;;;;;5018945;28;1460;-69
2024/02/18 10:57:58;;;;;;;;;;;17.90;65.80;;;;;;5019079;28;1261;-69
2024/02/18 11:00:23;;;;;;;;;;;17.90;65.80;;;;;;5020231;28;1584;-69
2024/02/18 11:02:55;;;;;;;;;;;17.80;65.80;;;;;;5015441;28;1758;-70
2024/02/18 11:05:20;;;;;;;;;;;17.80;65.80;;;;;;5019031;28;1942;-70
2024/02/18 11:07:46;;;;;;;;;;;17.80;65.80;;;;;;5026907;28;1699;-70
2024/02/18 11:10:11;;;;;;;;;;;17.80;65.80;;;;;;5018581;28;1523;-70
2024/02/18 11:12:37;;;;;;;;;;;17.80;65.90;;;;;;5019779;28;1437;-69
2024/02/18 11:15:04;;;;;;;;;;;17.80;65.90;;;;;;5019190;28;1342;-69
2024/02/18 11:17:29;;;;;;;;;;;17.80;65.90;;;;;;5016301;28;1466;-70
2024/02/18 11:19:55;;;;;;;;;;;17.80;66.00;;;;;;5018815;28;1431;-69
2024/02/18 11:22:21;;;;;;;;;;;17.80;66.00;;;;;;5019301;28;1317;-69
2024/02/18 11:24:48;;;;;;;;;;;17.80;66.00;;;;;;5020030;28;1894;-69
2024/02/18 11:27:16;;;;;;;;;;;17.80;66.10;;;;;;5020119;28;1952;-70
2024/02/18 11:29:45;;;;;;;;;;;17.80;66.10;;;;;;5018171;28;1377;-69
2024/02/18 11:32:11;;;;;;;;;;;17.80;66.10;;;;;;5015961;28;2366;-69
2024/02/18 11:34:36;;;;;;;;;;;17.80;66.10;;;;;;5015080;28;1449;-70
2024/02/18 11:37:05;;;;;;;;;;;17.80;66.10;;;;;;5016635;28;2005;-70
2024/02/18 11:39:30;;;;;;;;;;;17.80;66.10;;;;;;5018526;28;1352;-70
2024/02/18 11:41:56;;;;;;;;;;;17.80;66.10;;;;;;5019706;28;1326;-70
2024/02/18 11:44:22;;;;;;;;;;;17.80;66.20;;;;;;5019860;28;1163;-70
2024/02/18 11:46:50;;;;;;;;;;;17.70;66.20;;;;;;5016435;28;1937;-70
2024/02/18 11:49:16;;;;;;;;;;;17.70;66.10;;;;;;5020631;28;1336;-70
2024/02/18 11:51:41;;;;;;;;;;;17.80;66.20;;;;;;5022341;28;1205;-69
2024/02/18 11:54:07;;;;;;;;;;;17.70;66.20;;;;;;5019176;28;1254;-70
2024/02/18 11:56:32;;;;;;;;;;;17.80;66.30;;;;;;5020600;28;1354;-70
2024/02/18 11:58:58;;;;;;;;;;;17.70;66.20;;;;;;5021762;28;1297;-70
2024/02/18 12:01:25;;;;;;;;;;;17.70;66.20;;;;;;5020376;28;1208;-70
2024/02/18 12:03:51;;;;;;;;;;;17.70;66.30;;;;;;5020103;28;1491;-70
2024/02/18 12:06:16;;;;;;;;;;;17.70;66.30;;;;;;5015144;28;2049;-70
2024/02/18 12:08:42;;;;;;;;;;;17.70;66.30;;;;;;5017871;28;1545;-70
2024/02/18 12:11:07;;;;;;;;;;;17.70;66.40;;;;;;5003641;28;1499;-70
2024/02/18 12:13:33;;;;;;;;;;;17.70;66.40;;;;;;5003320;28;1429;-69
2024/02/18 12:16:02;;;;;;;;;;;17.70;66.30;;;;;;5017989;28;1503;-69
2024/02/18 12:18:27;;;;;;;;;;;17.70;66.40;;;;;;5015758;28;1361;-69
2024/02/18 12:20:53;;;;;;;;;;;17.70;66.40;;;;;;5017333;28;1525;-69
2024/02/18 12:23:22;;;;;;;;;;;17.70;66.50;;;;;;5025738;28;1469;-69
2024/02/18 12:25:48;;;;;;;;;;;17.70;66.40;;;;;;5020974;28;1960;-69
2024/02/18 12:28:13;;;;;;;;;;;17.70;66.50;;;;;;5018840;28;1407;-69
2024/02/18 12:30:39;;;;;;;;;;;17.70;67.20;;;;;;5019965;28;1399;-70
2024/02/18 12:33:05;;;;;;;;;;;17.70;66.50;;;;;;5018533;28;1549;-69
2024/02/18 12:35:31;;;;;;;;;;;17.70;66.50;;;;;;5017636;28;1518;-70
2024/02/18 12:37:56;;;;;;;;;;;17.70;66.50;;;;;;5020198;28;1340;-70
2024/02/18 12:40:23;;;;;;;;;;;17.70;66.50;;;;;;5017722;28;1284;-69
2024/02/18 12:42:48;;;;;;;;;;;17.70;66.60;;;;;;5018210;28;1382;-70
2024/02/18 12:45:23;;;;;;;;;;;17.70;66.60;;;;;;5023288;28;1898;-69
2024/02/18 12:47:49;;;;;;;;;;;17.70;66.60;;;;;;5024482;28;1310;-69
2024/02/18 12:50:14;;;;;;;;;;;17.70;66.60;;;;;;5023056;28;1361;-70
2024/02/18 12:52:40;;;;;;;;;;;17.70;66.60;;;;;;5022435;28;1592;-69
2024/02/18 12:55:06;;;;;;;;;;;17.70;66.60;;;;;;5023412;28;1462;-69
2024/02/18 12:57:32;;;;;;;;;;;17.60;66.60;;;;;;5025234;28;1322;-69
2024/02/18 12:59:57;;;;;;;;;;;17.70;66.60;;;;;;5023848;28;1419;-69
2024/02/18 13:02:23;;;;;;;;;;;17.70;66.60;;;;;;5022302;28;1500;-69
2024/02/18 13:04:55;;;;;;;;;;;17.70;66.60;;;;;;5020334;28;1906;-68
2024/02/18 13:07:23;;;;;;;;;;;17.70;66.60;;;;;;5021063;28;1335;-68
2024/02/18 13:09:49;;;;;;;;;;;17.70;66.50;;;;;;5020009;28;1292;-68
2024/02/18 13:12:14;;;;;;;;;;;17.70;66.50;;;;;;5024357;28;1650;-68
2024/02/18 13:14:41;;;;;;;;;;;17.70;66.40;;;;;;5020383;28;1532;-69
2024/02/18 13:17:07;;;;;;;;;;;17.70;66.40;;;;;;5006940;28;1479;-70
2024/02/18 13:19:33;;;;;;;;;;;17.80;66.30;;;;;;5021746;28;1466;-69
2024/02/18 13:21:58;;;;;;;;;;;17.80;66.30;;;;;;5023593;28;980;-68
2024/02/18 13:24:23;;;;;;;;;;;17.80;66.20;;;;;;5021186;28;1313;-69
2024/02/18 13:26:51;;;;;;;;;;;17.80;66.10;;;;;;5021262;28;1957;-69
2024/02/18 13:29:17;;;;;;;;;;;17.80;66.10;;;;;;5022365;28;1280;-68
2024/02/18 13:31:45;;;;;;;;;;;17.80;66.10;;;;;;5020292;28;1346;-69
2024/02/18 13:34:11;;;;;;;;;;;17.80;66.00;;;;;;5029600;28;1404;-69
2024/02/18 13:36:39;;;;;;;;;;;17.80;65.90;;;;;;5023555;28;1282;-67
2024/02/18 13:39:06;;;;;;;;;;;17.90;66.00;;;;;;5023522;28;1471;-69
2024/02/18 13:41:31;;;;;;;;;;;17.80;65.80;;;;;;5021750;28;1593;-68
2024/02/18 13:43:57;;;;;;;;;;;17.90;65.90;;;;;;5023129;28;1571;-68
2024/02/18 13:46:22;;;;;;;;;;;17.90;65.80;;;;;;5004216;28;1902;-69
2024/02/18 13:48:49;;;;;;;;;;;17.90;65.80;;;;;;5021445;28;1548;-68
2024/02/18 13:51:15;;;;;;;;;;;17.90;65.70;;;;;;5021990;28;1342;-68
2024/02/18 13:53:40;;;;;;;;;;;17.90;65.70;;;;;;5020441;28;1449;-68
2024/02/18 13:56:06;;;;;;;;;;;17.90;65.70;;;;;;5018531;28;1473;-68
2024/02/18 13:58:32;;;;;;;;;;;17.90;65.70;;;;;;5019755;28;1331;-68
2024/02/18 14:00:57;;;;;;;;;;;18.00;65.70;;;;;;5021909;28;1535;-68
2024/02/18 14:03:23;;;;;;;;;;;17.90;65.60;;;;;;5019516;28;1436;-68
2024/02/18 14:05:48;;;;;;;;;;;17.90;65.60;;;;;;5020913;28;1961;-68
2024/02/18 14:08:14;;;;;;;;;;;17.90;65.50;;;;;;5018662;28;1318;-69
2024/02/18 14:10:39;;;;;;;;;;;18.00;65.60;;;;;;5052234;28;1485;-68
2024/02/18 14:13:05;;;;;;;;;;;17.90;65.50;;;;;;5018952;28;1860;-69
2024/02/18 14:15:31;;;;;;;;;;;18.00;65.50;;;;;;5020087;28;1626;-68
2024/02/18 14:17:58;;;;;;;;;;;18.00;65.50;;;;;;5018126;28;1326;-68
2024/02/18 14:20:23;;;;;;;;;;;18.00;65.70;;;;;;5021862;28;1592;-69
2024/02/18 14:22:49;;;;;;;;;;;18.00;65.50;;;;;;5017717;28;2117;-69